createdAt,value
2016-07-18T00:00:15.466Z,98.67
2016-07-18T00:00:45.483Z,99.05
2016-07-18T00:01:15.497Z,98
2016-07-18T00:01:45.515Z,98.96
2016-07-18T00:02:15.534Z,98.47
2016-07-18T00:02:45.546Z,98.33
2016-07-18T00:03:15.552Z,99.38
2016-07-18T00:03:45.578Z,99.34
2016-07-18T00:04:15.586Z,98.91
2016-07-18T00:04:45.599Z,99.19
2016-07-18T00:05:15.617Z,98.81
2016-07-18T00:05:45.632Z,98.91
2016-07-18T00:06:15.647Z,99
2016-07-18T00:06:45.663Z,98.91
2016-07-18T00:07:15.681Z,98.91
2016-07-18T00:07:45.689Z,98.71
2016-07-18T00:08:15.712Z,99.19
2016-07-18T00:08:45.711Z,98.91
2016-07-18T00:09:15.728Z,99.1
2016-07-18T00:09:45.756Z,98.71
2016-07-18T00:10:15.755Z,99.67
2016-07-18T00:10:45.767Z,99.38
2016-07-18T00:11:15.804Z,99.58
2016-07-18T00:11:45.802Z,99.38
2016-07-18T00:12:15.814Z,99.38
2016-07-18T00:12:44.413Z,99.38
2016-07-18T00:13:15.844Z,99.29
2016-07-18T00:13:45.857Z,99.87
2016-07-18T00:14:15.168Z,99.77
2016-07-18T00:14:45.891Z,99.87
2016-07-18T00:15:15.193Z,99.48
2016-07-18T00:15:45.910Z,99.38
2016-07-18T00:16:15.938Z,99.38
2016-07-18T00:16:45.951Z,99.48
2016-07-18T00:17:15.962Z,99.48
2016-07-18T00:17:45.981Z,99.58
2016-07-18T00:18:15.987Z,99.38
2016-07-18T00:18:46.002Z,99.38
2016-07-18T00:19:16.012Z,99.29
2016-07-18T00:19:46.041Z,99.48
2016-07-18T00:20:16.051Z,99.38
2016-07-18T00:20:46.070Z,99.29
2016-07-18T00:21:15.384Z,99.58
2016-07-18T00:21:46.093Z,99.38
2016-07-18T00:22:16.101Z,99.77
2016-07-18T00:22:46.124Z,99.67
2016-07-18T00:23:16.142Z,99.29
2016-07-18T00:23:46.148Z,99.38
2016-07-18T00:24:16.171Z,99.99
2016-07-18T00:24:46.179Z,99.99
2016-07-18T00:25:16.193Z,99.99
2016-07-18T00:25:46.213Z,99.99
2016-07-18T00:26:16.218Z,99.99
2016-07-18T00:26:46.256Z,99.99
2016-07-18T00:27:16.262Z,99.99
2016-07-18T00:27:45.553Z,99.99
2016-07-18T00:28:15.566Z,99.99
2016-07-18T00:28:46.294Z,99.99
2016-07-18T00:29:16.312Z,99.99
2016-07-18T00:29:46.334Z,99.99
2016-07-18T00:30:15.627Z,99.99
2016-07-18T00:30:45.653Z,99.99
2016-07-18T00:31:16.361Z,99.99
2016-07-18T00:31:46.377Z,99.99
2016-07-18T00:32:16.396Z,99.99
2016-07-18T00:32:46.407Z,99.99
2016-07-18T00:33:16.426Z,99.96
2016-07-18T00:33:46.451Z,99.99
2016-07-18T00:34:16.450Z,99.99
2016-07-18T00:34:46.464Z,99.99
2016-07-18T00:35:16.486Z,99.99
2016-07-18T00:35:46.502Z,99.99
2016-07-18T00:36:16.509Z,99.99
2016-07-18T00:36:46.521Z,99.99
2016-07-18T00:37:16.541Z,99.99
2016-07-18T00:37:46.551Z,99.99
2016-07-18T00:38:16.569Z,99.99
2016-07-18T00:38:46.582Z,99.99
2016-07-18T00:39:16.596Z,99.99
2016-07-18T00:39:46.628Z,99.99
2016-07-18T00:40:16.629Z,99.99
2016-07-18T00:40:46.638Z,99.99
2016-07-18T00:41:15.950Z,99.99
2016-07-18T00:41:46.669Z,99.99
2016-07-18T00:42:16.680Z,99.99
2016-07-18T00:42:46.696Z,99.99
2016-07-18T00:43:15.288Z,99.99
2016-07-18T00:43:46.719Z,99.99
2016-07-18T00:44:16.742Z,99.99
2016-07-18T00:44:46.757Z,99.99
2016-07-18T00:45:16.761Z,99.99
2016-07-18T00:45:46.782Z,99.99
2016-07-18T00:46:16.795Z,99.99
2016-07-18T00:46:46.807Z,99.99
2016-07-18T00:47:16.819Z,99.99
2016-07-18T00:47:46.843Z,99.99
2016-07-18T00:48:16.853Z,99.99
2016-07-18T00:48:46.862Z,99.99
2016-07-18T00:49:16.878Z,99.99
2016-07-18T00:49:46.907Z,99.99
2016-07-18T00:50:16.207Z,99.99
2016-07-18T00:50:45.507Z,99.99
2016-07-18T00:51:16.933Z,99.99
2016-07-18T00:51:46.244Z,99.99
2016-07-18T00:52:16.975Z,99.99
2016-07-18T00:52:46.985Z,99.99
2016-07-18T00:53:17.000Z,99.99
2016-07-18T00:53:47.018Z,99.99
2016-07-18T00:54:17.035Z,99.99
2016-07-18T00:54:46.329Z,99.99
2016-07-18T00:55:17.065Z,99.99
2016-07-18T00:55:47.068Z,99.99
2016-07-18T00:56:17.089Z,99.99
2016-07-18T00:56:47.098Z,99.99
2016-07-18T00:57:16.409Z,99.99
2016-07-18T00:57:47.124Z,99.99
2016-07-18T00:58:17.141Z,99.99
2016-07-18T00:58:47.154Z,99.99
2016-07-18T00:59:17.182Z,99.99
2016-07-18T00:59:47.184Z,99.99
2016-07-18T01:00:17.201Z,99.99
2016-07-18T01:00:47.216Z,99.99
2016-07-18T01:01:17.228Z,99.99
2016-07-18T01:01:47.244Z,99.99
2016-07-18T01:02:17.259Z,99.99
2016-07-18T01:02:47.285Z,99.99
2016-07-18T01:03:17.290Z,99.99
2016-07-18T01:03:46.594Z,99.99
2016-07-18T01:04:17.318Z,99.99
2016-07-18T01:04:47.324Z,99.99
2016-07-18T01:05:17.349Z,99.99
2016-07-18T01:05:47.356Z,99.99
2016-07-18T01:06:17.370Z,99.99
2016-07-18T01:06:47.388Z,99.99
2016-07-18T01:07:17.405Z,99.99
2016-07-18T01:07:47.426Z,99.99
2016-07-18T01:08:16.720Z,99.99
2016-07-18T01:08:47.440Z,99.99
2016-07-18T01:09:17.457Z,99.99
2016-07-18T01:09:47.477Z,99.99
2016-07-18T01:10:17.489Z,99.99
2016-07-18T01:10:47.502Z,99.99
2016-07-18T01:11:17.524Z,99.99
2016-07-18T01:11:47.529Z,99.99
2016-07-18T01:12:17.540Z,99.99
2016-07-18T01:12:47.557Z,99.99
2016-07-18T01:13:17.571Z,99.99
2016-07-18T01:13:47.595Z,99.99
2016-07-18T01:14:17.595Z,99.99
2016-07-18T01:14:46.922Z,99.99
2016-07-18T01:15:17.629Z,99.99
2016-07-18T01:15:46.936Z,99.99
2016-07-18T01:16:17.663Z,99.99
2016-07-18T01:16:47.680Z,99.99
2016-07-18T01:17:17.686Z,99.99
2016-07-18T01:17:47.705Z,99.99
2016-07-18T01:18:17.013Z,99.99
2016-07-18T01:18:47.730Z,99.99
2016-07-18T01:19:17.748Z,99.99
2016-07-18T01:19:47.761Z,99.99
2016-07-18T01:20:17.766Z,99.99
2016-07-18T01:20:47.785Z,99.99
2016-07-18T01:21:17.806Z,99.99
2016-07-18T01:21:47.114Z,99.99
2016-07-18T01:22:17.828Z,99.99
2016-07-18T01:22:47.840Z,99.99
2016-07-18T01:23:17.855Z,99.99
2016-07-18T01:23:47.875Z,99.99
2016-07-18T01:24:17.881Z,99.99
2016-07-18T01:24:47.906Z,99.99
2016-07-18T01:25:17.919Z,99.99
2016-07-18T01:25:46.508Z,99.99
2016-07-18T01:26:17.943Z,99.99
2016-07-18T01:26:47.976Z,99.99
2016-07-18T01:27:17.970Z,99.99
2016-07-18T01:27:47.994Z,99.99
2016-07-18T01:28:18.004Z,99.99
2016-07-18T01:28:48.021Z,99.99
2016-07-18T01:29:18.029Z,99.99
2016-07-18T01:29:48.046Z,99.99
2016-07-18T01:30:18.059Z,99.99
2016-07-18T01:30:48.084Z,99.99
2016-07-18T01:31:18.089Z,99.99
2016-07-18T01:31:48.107Z,99.99
2016-07-18T01:32:17.408Z,99.99
2016-07-18T01:32:48.132Z,99.99
2016-07-18T01:33:18.146Z,99.99
2016-07-18T01:33:48.167Z,99.99
2016-07-18T01:34:18.177Z,99.99
2016-07-18T01:34:48.192Z,99.99
2016-07-18T01:35:18.204Z,99.99
2016-07-18T01:35:48.223Z,99.99
2016-07-18T01:36:18.231Z,99.99
2016-07-18T01:36:48.248Z,99.99
2016-07-18T01:37:18.265Z,99.99
2016-07-18T01:37:48.276Z,99.99
2016-07-18T01:38:18.291Z,99.99
2016-07-18T01:38:48.303Z,99.99
2016-07-18T01:39:18.319Z,99.99
2016-07-18T01:39:48.325Z,99.99
2016-07-18T01:40:18.346Z,99.99
2016-07-18T01:40:48.367Z,99.99
2016-07-18T01:41:18.387Z,99.99
2016-07-18T01:41:48.387Z,99.99
2016-07-18T01:42:17.696Z,99.99
2016-07-18T01:42:48.421Z,99.99
2016-07-18T01:43:18.428Z,99.99
2016-07-18T01:43:48.448Z,99.99
2016-07-18T01:44:18.461Z,99.99
2016-07-18T01:44:48.477Z,99.99
2016-07-18T01:45:18.488Z,99.99
2016-07-18T01:45:48.507Z,99.99
2016-07-18T01:46:18.522Z,99.99
2016-07-18T01:46:48.529Z,99.99
2016-07-18T01:47:18.550Z,99.99
2016-07-18T01:47:48.570Z,99.99
2016-07-18T01:48:18.583Z,99.99
2016-07-18T01:48:48.587Z,99.99
2016-07-18T01:49:18.600Z,99.99
2016-07-18T01:49:48.618Z,99.99
2016-07-18T01:50:18.626Z,99.99
2016-07-18T01:50:48.642Z,99.99
2016-07-18T01:51:18.663Z,99.99
2016-07-18T01:51:48.679Z,99.99
2016-07-18T01:52:17.999Z,99.99
2016-07-18T01:52:48.716Z,99.99
2016-07-18T01:53:18.712Z,99.99
2016-07-18T01:53:48.736Z,99.99
2016-07-18T01:54:18.748Z,99.99
2016-07-18T01:54:48.057Z,99.99
2016-07-18T01:55:18.773Z,99.99
2016-07-18T01:55:48.793Z,99.99
2016-07-18T01:56:18.808Z,99.99
2016-07-18T01:56:48.111Z,99.99
2016-07-18T01:57:18.843Z,99.99
2016-07-18T01:57:48.851Z,99.99
2016-07-18T01:58:18.863Z,99.99
2016-07-18T01:58:48.877Z,99.99
2016-07-18T01:59:18.897Z,99.99
2016-07-18T01:59:48.194Z,99.99
2016-07-18T02:00:18.926Z,99.99
2016-07-18T02:00:48.936Z,99.99
2016-07-18T02:01:18.949Z,99.99
2016-07-18T02:01:48.253Z,99.99
2016-07-18T02:02:18.268Z,99.99
2016-07-18T02:02:48.277Z,99.99
2016-07-18T02:03:19.009Z,99.99
2016-07-18T02:03:49.018Z,99.99
2016-07-18T02:04:19.034Z,99.99
2016-07-18T02:04:48.333Z,99.99
2016-07-18T02:05:19.067Z,99.99
2016-07-18T02:05:49.079Z,99.99
2016-07-18T02:06:19.101Z,99.99
2016-07-18T02:06:49.099Z,99.99
2016-07-18T02:07:19.120Z,99.99
2016-07-18T02:07:48.422Z,99.99
2016-07-18T02:08:19.151Z,99.99
2016-07-18T02:08:49.157Z,99.99
2016-07-18T02:09:19.180Z,99.99
2016-07-18T02:09:49.193Z,99.99
2016-07-18T02:10:19.198Z,99.99
2016-07-18T02:10:49.224Z,99.99
2016-07-18T02:11:19.241Z,99.99
2016-07-18T02:11:49.261Z,99.99
2016-07-18T02:12:19.265Z,99.99
2016-07-18T02:12:49.278Z,99.99
2016-07-18T02:13:19.288Z,99.99
2016-07-18T02:13:48.592Z,99.99
2016-07-18T02:14:19.319Z,99.99
2016-07-18T02:14:49.332Z,99.99
2016-07-18T02:15:17.923Z,99.99
2016-07-18T02:15:49.365Z,99.99
2016-07-18T02:16:19.379Z,99.99
2016-07-18T02:16:49.396Z,99.99
2016-07-18T02:17:19.417Z,99.99
2016-07-18T02:17:49.423Z,99.99
2016-07-18T02:18:19.439Z,99.99
2016-07-18T02:18:49.442Z,99.99
2016-07-18T02:19:19.461Z,99.99
2016-07-18T02:19:49.480Z,99.99
2016-07-18T02:20:19.494Z,99.99
2016-07-18T02:20:49.500Z,99.99
2016-07-18T02:21:19.518Z,99.99
2016-07-18T02:21:48.825Z,99.99
2016-07-18T02:22:18.838Z,99.99
2016-07-18T02:22:49.554Z,99.99
2016-07-18T02:23:19.569Z,99.99
2016-07-18T02:23:49.593Z,99.99
2016-07-18T02:24:19.599Z,99.99
2016-07-18T02:24:49.621Z,99.99
2016-07-18T02:25:19.633Z,99.99
2016-07-18T02:25:49.644Z,99.99
2016-07-18T02:26:19.665Z,99.99
2016-07-18T02:26:49.674Z,99.99
2016-07-18T02:27:19.688Z,99.99
2016-07-18T02:27:49.700Z,99.99
2016-07-18T02:28:19.007Z,99.99
2016-07-18T02:28:49.731Z,99.99
2016-07-18T02:29:19.745Z,99.99
2016-07-18T02:29:49.758Z,99.99
2016-07-18T02:30:19.781Z,99.99
2016-07-18T02:30:49.793Z,99.99
2016-07-18T02:31:19.799Z,99.99
2016-07-18T02:31:49.112Z,99.99
2016-07-18T02:32:19.837Z,99.99
2016-07-18T02:32:49.847Z,99.99
2016-07-18T02:33:19.149Z,99.99
2016-07-18T02:33:49.869Z,99.99
2016-07-18T02:34:19.182Z,99.99
2016-07-18T02:34:49.200Z,99.99
2016-07-18T02:35:19.914Z,99.99
2016-07-18T02:35:49.940Z,99.99
2016-07-18T02:36:19.231Z,99.99
2016-07-18T02:36:49.975Z,99.99
2016-07-18T02:37:19.970Z,99.99
2016-07-18T02:37:49.995Z,99.99
2016-07-18T02:38:20.010Z,99.99
2016-07-18T02:38:50.009Z,99.99
2016-07-18T02:39:20.023Z,99.99
2016-07-18T02:39:50.046Z,99.99
2016-07-18T02:40:20.058Z,99.99
2016-07-18T02:40:49.364Z,99.99
2016-07-18T02:41:20.091Z,99.99
2016-07-18T02:41:50.104Z,99.99
2016-07-18T02:42:20.125Z,99.99
2016-07-18T02:42:50.129Z,99.99
2016-07-18T02:43:20.145Z,99.99
2016-07-18T02:43:49.453Z,99.99
2016-07-18T02:44:20.177Z,99.99
2016-07-18T02:44:50.190Z,99.99
2016-07-18T02:45:20.205Z,99.99
2016-07-18T02:45:50.217Z,99.99
2016-07-18T02:46:20.230Z,99.99
2016-07-18T02:46:50.251Z,99.99
2016-07-18T02:47:20.263Z,99.99
2016-07-18T02:47:50.290Z,99.99
2016-07-18T02:48:19.578Z,99.99
2016-07-18T02:48:50.312Z,99.99
2016-07-18T02:49:20.316Z,99.99
2016-07-18T02:49:50.323Z,99.99
2016-07-18T02:50:20.344Z,99.99
2016-07-18T02:50:50.361Z,99.99
2016-07-18T02:51:20.370Z,99.99
2016-07-18T02:51:50.399Z,99.99
2016-07-18T02:52:20.397Z,99.99
2016-07-18T02:52:50.413Z,99.99
2016-07-18T02:53:20.430Z,99.99
2016-07-18T02:53:50.444Z,99.99
2016-07-18T02:54:20.461Z,99.99
2016-07-18T02:54:50.471Z,99.99
2016-07-18T02:55:20.483Z,99.99
2016-07-18T02:55:50.507Z,99.99
2016-07-18T02:56:19.827Z,99.99
2016-07-18T02:56:50.531Z,99.99
2016-07-18T02:57:20.550Z,99.99
2016-07-18T02:57:50.564Z,99.99
2016-07-18T02:58:20.570Z,99.99
2016-07-18T02:58:49.890Z,99.99
2016-07-18T02:59:20.604Z,99.99
2016-07-18T02:59:50.619Z,99.99
2016-07-18T03:00:20.626Z,99.99
2016-07-18T03:00:50.653Z,99.99
2016-07-18T03:01:20.663Z,99.99
2016-07-18T03:01:50.671Z,99.99
2016-07-18T03:02:20.690Z,99.99
2016-07-18T03:02:49.990Z,99.99
2016-07-18T03:03:20.723Z,99.99
2016-07-18T03:03:50.731Z,99.99
2016-07-18T03:04:20.749Z,99.99
2016-07-18T03:04:50.762Z,99.99
2016-07-18T03:05:20.772Z,99.99
2016-07-18T03:05:50.785Z,99.99
2016-07-18T03:06:20.805Z,99.99
2016-07-18T03:06:50.822Z,99.99
2016-07-18T03:07:20.119Z,99.99
2016-07-18T03:07:50.854Z,99.99
2016-07-18T03:08:20.863Z,99.99
2016-07-18T03:08:50.871Z,99.99
2016-07-18T03:09:20.894Z,99.99
2016-07-18T03:09:50.904Z,99.99
2016-07-18T03:10:20.912Z,99.99
2016-07-18T03:10:50.935Z,99.99
2016-07-18T03:11:20.940Z,99.99
2016-07-18T03:11:50.959Z,99.99
2016-07-18T03:12:20.968Z,99.99
2016-07-18T03:12:50.994Z,99.99
2016-07-18T03:13:21.007Z,99.99
2016-07-18T03:13:51.017Z,99.99
2016-07-18T03:14:21.034Z,99.99
2016-07-18T03:14:51.061Z,99.99
2016-07-18T03:15:21.058Z,99.99
2016-07-18T03:15:50.366Z,99.99
2016-07-18T03:16:21.083Z,99.99
2016-07-18T03:16:51.105Z,99.99
2016-07-18T03:17:21.117Z,99.99
2016-07-18T03:17:50.423Z,99.99
2016-07-18T03:18:20.437Z,99.99
2016-07-18T03:18:51.164Z,99.99
2016-07-18T03:19:21.178Z,99.99
2016-07-18T03:19:51.192Z,99.99
2016-07-18T03:20:20.500Z,99.99
2016-07-18T03:20:50.502Z,99.99
2016-07-18T03:21:21.237Z,99.99
2016-07-18T03:21:51.245Z,99.99
2016-07-18T03:22:20.551Z,99.99
2016-07-18T03:22:51.274Z,99.99
2016-07-18T03:23:21.295Z,99.99
2016-07-18T03:23:51.307Z,99.99
2016-07-18T03:24:21.319Z,99.99
2016-07-18T03:24:51.332Z,99.99
2016-07-18T03:25:21.344Z,99.99
2016-07-18T03:25:50.649Z,99.99
2016-07-18T03:26:21.377Z,99.99
2016-07-18T03:26:51.394Z,99.99
2016-07-18T03:27:21.410Z,99.99
2016-07-18T03:27:51.432Z,99.99
2016-07-18T03:28:21.434Z,99.99
2016-07-18T03:28:51.457Z,99.99
2016-07-18T03:29:21.465Z,99.99
2016-07-18T03:29:51.479Z,99.99
2016-07-18T03:30:20.783Z,99.99
2016-07-18T03:30:50.797Z,99.99
2016-07-18T03:31:21.525Z,99.99
2016-07-18T03:31:51.529Z,99.99
2016-07-18T03:32:21.548Z,99.99
2016-07-18T03:32:51.575Z,99.99
2016-07-18T03:33:21.576Z,99.99
2016-07-18T03:33:51.587Z,99.99
2016-07-18T03:34:21.608Z,99.99
2016-07-18T03:34:50.914Z,99.99
2016-07-18T03:35:21.634Z,99.99
2016-07-18T03:35:51.664Z,99.99
2016-07-18T03:36:21.657Z,99.99
2016-07-18T03:36:50.967Z,99.99
2016-07-18T03:37:21.689Z,99.99
2016-07-18T03:37:51.708Z,99.99
2016-07-18T03:38:21.010Z,99.99
2016-07-18T03:38:51.756Z,99.99
2016-07-18T03:39:21.747Z,99.99
2016-07-18T03:39:51.767Z,99.99
2016-07-18T03:40:21.784Z,99.99
2016-07-18T03:40:51.797Z,99.99
2016-07-18T03:41:21.804Z,99.99
2016-07-18T03:41:51.818Z,99.99
2016-07-18T03:42:21.832Z,99.99
2016-07-18T03:42:51.844Z,99.99
2016-07-18T03:43:21.866Z,99.99
2016-07-18T03:43:51.170Z,99.99
2016-07-18T03:44:21.892Z,99.99
2016-07-18T03:44:51.899Z,99.99
2016-07-18T03:45:21.934Z,99.99
2016-07-18T03:45:51.939Z,99.99
2016-07-18T03:46:21.952Z,99.99
2016-07-18T03:46:51.965Z,99.99
2016-07-18T03:47:21.980Z,99.99
2016-07-18T03:47:51.281Z,99.99
2016-07-18T03:48:22.003Z,99.99
2016-07-18T03:48:52.026Z,99.99
2016-07-18T03:49:22.035Z,99.99
2016-07-18T03:49:52.050Z,99.99
2016-07-18T03:50:22.064Z,99.99
2016-07-18T03:50:52.085Z,99.99
2016-07-18T03:51:22.097Z,99.99
2016-07-18T03:51:52.111Z,99.99
2016-07-18T03:52:22.127Z,99.99
2016-07-18T03:52:52.135Z,99.99
2016-07-18T03:53:22.147Z,99.99
2016-07-18T03:53:52.159Z,99.99
2016-07-18T03:54:22.177Z,99.99
2016-07-18T03:54:52.189Z,99.99
2016-07-18T03:55:22.199Z,99.99
2016-07-18T03:55:51.524Z,99.99
2016-07-18T03:56:22.238Z,99.99
2016-07-18T03:56:52.247Z,99.99
2016-07-18T03:57:22.265Z,99.99
2016-07-18T03:57:52.284Z,99.99
2016-07-18T03:58:22.284Z,99.99
2016-07-18T03:58:52.312Z,99.99
2016-07-18T03:59:22.325Z,99.99
2016-07-18T03:59:51.635Z,99.99
2016-07-18T04:00:20.924Z,99.99
2016-07-18T04:00:52.367Z,99.99
2016-07-18T04:01:22.375Z,99.99
2016-07-18T04:01:52.390Z,99.99
2016-07-18T04:02:22.406Z,99.99
2016-07-18T04:02:52.418Z,99.99
2016-07-18T04:03:22.447Z,99.99
2016-07-18T04:03:52.450Z,99.99
2016-07-18T04:04:22.459Z,99.99
2016-07-18T04:04:52.475Z,99.99
2016-07-18T04:05:22.490Z,99.99
2016-07-18T04:05:52.506Z,99.99
2016-07-18T04:06:22.517Z,99.99
2016-07-18T04:06:51.825Z,99.99
2016-07-18T04:07:22.552Z,99.99
2016-07-18T04:07:52.575Z,99.99
2016-07-18T04:08:22.576Z,99.99
2016-07-18T04:08:52.584Z,99.99
2016-07-18T04:09:22.611Z,99.99
2016-07-18T04:09:52.621Z,99.99
2016-07-18T04:10:22.644Z,99.99
2016-07-18T04:10:52.657Z,99.99
2016-07-18T04:11:22.681Z,99.99
2016-07-18T04:11:52.677Z,99.99
2016-07-18T04:12:22.689Z,99.99
2016-07-18T04:12:52.706Z,99.99
2016-07-18T04:13:22.714Z,99.99
2016-07-18T04:13:52.748Z,99.99
2016-07-18T04:14:22.747Z,99.99
2016-07-18T04:14:52.757Z,99.99
2016-07-18T04:15:22.780Z,99.99
2016-07-18T04:15:52.793Z,99.99
2016-07-18T04:16:22.806Z,99.99
2016-07-18T04:16:52.819Z,99.99
2016-07-18T04:17:22.836Z,99.99
2016-07-18T04:17:52.858Z,99.99
2016-07-18T04:18:22.149Z,99.99
2016-07-18T04:18:52.879Z,99.99
2016-07-18T04:19:22.896Z,99.99
2016-07-18T04:19:52.905Z,99.99
2016-07-18T04:20:22.918Z,99.99
2016-07-18T04:20:52.939Z,99.99
2016-07-18T04:21:22.952Z,99.99
2016-07-18T04:21:52.259Z,99.99
2016-07-18T04:22:22.987Z,99.99
2016-07-18T04:22:52.997Z,99.99
2016-07-18T04:23:23.007Z,99.99
2016-07-18T04:23:53.021Z,99.99
2016-07-18T04:24:23.032Z,99.99
2016-07-18T04:24:53.045Z,99.99
2016-07-18T04:25:23.059Z,99.99
2016-07-18T04:25:53.078Z,99.99
2016-07-18T04:26:22.386Z,99.99
2016-07-18T04:26:53.101Z,99.99
2016-07-18T04:27:23.130Z,99.99
2016-07-18T04:27:53.136Z,99.99
2016-07-18T04:28:23.146Z,99.99
2016-07-18T04:28:53.163Z,99.99
2016-07-18T04:29:23.181Z,99.99
2016-07-18T04:29:53.189Z,99.99
2016-07-18T04:30:23.205Z,99.72
2016-07-18T04:30:53.227Z,99.99
2016-07-18T04:31:22.531Z,99.99
2016-07-18T04:31:53.252Z,99.99
2016-07-18T04:32:23.273Z,99.99
2016-07-18T04:32:53.299Z,99.99
2016-07-18T04:33:23.304Z,99.99
2016-07-18T04:33:53.308Z,99.99
2016-07-18T04:34:23.325Z,99.99
2016-07-18T04:34:51.932Z,99.99
2016-07-18T04:35:23.349Z,99.99
2016-07-18T04:35:53.373Z,99.99
2016-07-18T04:36:23.387Z,99.99
2016-07-18T04:36:53.397Z,99.99
2016-07-18T04:37:23.407Z,99.99
2016-07-18T04:37:52.726Z,99.99
2016-07-18T04:38:23.443Z,99.99
2016-07-18T04:38:52.742Z,99.99
2016-07-18T04:39:23.460Z,99.99
2016-07-18T04:39:52.776Z,99.99
2016-07-18T04:40:23.500Z,99.99
2016-07-18T04:40:53.509Z,99.99
2016-07-18T04:41:22.817Z,99.99
2016-07-18T04:41:53.551Z,99.99
2016-07-18T04:42:23.562Z,99.99
2016-07-18T04:42:53.571Z,99.99
2016-07-18T04:43:23.586Z,99.99
2016-07-18T04:43:53.605Z,99.82
2016-07-18T04:44:23.616Z,99.53
2016-07-18T04:44:53.629Z,99.48
2016-07-18T04:45:23.647Z,99.77
2016-07-18T04:45:53.657Z,99.58
2016-07-18T04:46:23.672Z,99.29
2016-07-18T04:46:53.690Z,99.58
2016-07-18T04:47:23.696Z,99.1
2016-07-18T04:47:53.723Z,98.62
2016-07-18T04:48:23.733Z,98.96
2016-07-18T04:48:53.750Z,98.67
2016-07-18T04:49:23.757Z,98.48
2016-07-18T04:49:53.062Z,98
2016-07-18T04:50:23.783Z,97.61
2016-07-18T04:50:53.807Z,97.71
2016-07-18T04:51:23.813Z,97.09
2016-07-18T04:51:53.836Z,96.32
2016-07-18T04:52:23.846Z,96.61
2016-07-18T04:52:53.875Z,96.32
2016-07-18T04:53:23.877Z,95.89
2016-07-18T04:53:53.901Z,95.31
2016-07-18T04:54:23.902Z,95.03
2016-07-18T04:54:53.919Z,94.74
2016-07-18T04:55:23.223Z,94.64
2016-07-18T04:55:53.947Z,94.83
2016-07-18T04:56:23.971Z,93.73
2016-07-18T04:56:53.977Z,93.54
2016-07-18T04:57:23.988Z,94.21
2016-07-18T04:57:54.007Z,94.01
2016-07-18T04:58:24.027Z,93.34
2016-07-18T04:58:53.327Z,93.44
2016-07-18T04:59:24.054Z,93.54
2016-07-18T04:59:54.080Z,93.34
2016-07-18T05:00:23.375Z,93.63
2016-07-18T05:00:53.384Z,93.34
2016-07-18T05:01:24.114Z,93.44
2016-07-18T05:01:54.140Z,93.19
2016-07-18T05:02:24.137Z,93.49
2016-07-18T05:02:54.156Z,93.01
2016-07-18T05:03:24.180Z,93.01
2016-07-18T05:03:53.475Z,93.01
2016-07-18T05:04:24.199Z,93.39
2016-07-18T05:04:53.514Z,93.01
2016-07-18T05:05:23.523Z,93.01
2016-07-18T05:05:53.539Z,92.96
2016-07-18T05:06:24.267Z,92.57
2016-07-18T05:06:54.278Z,93.44
2016-07-18T05:07:24.294Z,93.1
2016-07-18T05:07:54.308Z,93.34
2016-07-18T05:08:23.617Z,93.49
2016-07-18T05:08:53.631Z,94.01
2016-07-18T05:09:24.354Z,93.92
2016-07-18T05:09:53.657Z,93.87
2016-07-18T05:10:24.388Z,94.06
2016-07-18T05:10:54.399Z,93.49
2016-07-18T05:11:24.411Z,93.96
2016-07-18T05:11:54.427Z,94.26
2016-07-18T05:12:24.438Z,94.16
2016-07-18T05:12:53.745Z,93.77
2016-07-18T05:13:24.481Z,93.77
2016-07-18T05:13:54.478Z,94.26
2016-07-18T05:14:23.794Z,93.77
2016-07-18T05:14:54.518Z,93.87
2016-07-18T05:15:23.819Z,93.68
2016-07-18T05:15:54.544Z,93.96
2016-07-18T05:16:24.563Z,94.16
2016-07-18T05:16:54.577Z,93.29
2016-07-18T05:17:23.878Z,93.29
2016-07-18T05:17:54.617Z,93.68
2016-07-18T05:18:24.624Z,93.77
2016-07-18T05:18:54.633Z,93.77
2016-07-18T05:19:24.657Z,92.62
2016-07-18T05:19:54.677Z,93.01
2016-07-18T05:20:23.974Z,93.19
2016-07-18T05:20:54.692Z,93.1
2016-07-18T05:21:24.708Z,93.01
2016-07-18T05:21:54.728Z,93.1
2016-07-18T05:22:24.751Z,92.91
2016-07-18T05:22:54.750Z,93.1
2016-07-18T05:23:24.783Z,92.62
2016-07-18T05:23:54.086Z,93.19
2016-07-18T05:24:24.802Z,92.72
2016-07-18T05:24:54.811Z,93.01
2016-07-18T05:25:24.137Z,93.01
2016-07-18T05:25:54.140Z,93.29
2016-07-18T05:26:24.864Z,92.81
2016-07-18T05:26:54.878Z,92.52
2016-07-18T05:27:24.889Z,92.72
2016-07-18T05:27:54.910Z,92.43
2016-07-18T05:28:24.919Z,91.95
2016-07-18T05:28:54.934Z,92.09
2016-07-18T05:29:24.960Z,92.09
2016-07-18T05:29:54.969Z,91.9
2016-07-18T05:30:24.993Z,92.09
2016-07-18T05:30:54.997Z,91.61
2016-07-18T05:31:25.016Z,92.09
2016-07-18T05:31:55.028Z,91.9
2016-07-18T05:32:25.038Z,91.32
2016-07-18T05:32:54.344Z,91.61
2016-07-18T05:33:25.072Z,90.84
2016-07-18T05:33:54.376Z,90.65
2016-07-18T05:34:25.110Z,90.84
2016-07-18T05:34:54.411Z,90.26
2016-07-18T05:35:25.138Z,89.88
2016-07-18T05:35:54.441Z,89.98
2016-07-18T05:36:25.165Z,90.45
2016-07-18T05:36:55.184Z,89.69
2016-07-18T05:37:25.196Z,89.3
2016-07-18T05:37:54.499Z,90.17
2016-07-18T05:38:24.519Z,90.36
2016-07-18T05:38:55.238Z,89.5
2016-07-18T05:39:25.256Z,89.88
2016-07-18T05:39:54.562Z,89.73
2016-07-18T05:40:25.287Z,89.5
2016-07-18T05:40:55.304Z,89.59
2016-07-18T05:41:25.322Z,89.69
2016-07-18T05:41:55.342Z,89.54
2016-07-18T05:42:25.359Z,89.64
2016-07-18T05:42:55.369Z,89.21
2016-07-18T05:43:25.371Z,89.11
2016-07-18T05:43:55.391Z,88.92
2016-07-18T05:44:25.404Z,89.25
2016-07-18T05:44:54.710Z,89.21
2016-07-18T05:45:24.733Z,89.35
2016-07-18T05:45:55.451Z,89.44
2016-07-18T05:46:24.757Z,89.35
2016-07-18T05:46:55.493Z,88.77
2016-07-18T05:47:25.513Z,88.96
2016-07-18T05:47:55.509Z,89.54
2016-07-18T05:48:24.816Z,89.15
2016-07-18T05:48:55.544Z,88.96
2016-07-18T05:49:24.860Z,89.06
2016-07-18T05:49:54.870Z,88.96
2016-07-18T05:50:25.591Z,89.06
2016-07-18T05:50:55.603Z,88.57
2016-07-18T05:51:24.919Z,88.48
2016-07-18T05:51:54.930Z,88.48
2016-07-18T05:52:24.944Z,89.44
2016-07-18T05:52:54.965Z,89.54
2016-07-18T05:53:25.679Z,89.64
2016-07-18T05:53:55.702Z,88.87
2016-07-18T05:54:25.718Z,89.06
2016-07-18T05:54:55.731Z,88.87
2016-07-18T05:55:25.748Z,89.69
2016-07-18T05:55:55.773Z,89.35
2016-07-18T05:56:25.775Z,89.64
2016-07-18T05:56:55.085Z,89.11
2016-07-18T05:57:25.811Z,89.35
2016-07-18T05:57:55.119Z,89.01
2016-07-18T05:58:25.842Z,89.35
2016-07-18T05:58:54.432Z,89.3
2016-07-18T05:59:25.156Z,89.11
2016-07-18T05:59:55.882Z,89.11
2016-07-18T06:00:25.189Z,89.21
2016-07-18T06:00:54.498Z,89.11
2016-07-18T06:01:25.225Z,89.78
2016-07-18T06:01:55.942Z,89.69
2016-07-18T06:02:25.959Z,89.54
2016-07-18T06:02:55.265Z,89.25
2016-07-18T06:03:25.283Z,88.87
2016-07-18T06:03:56.013Z,89.15
2016-07-18T06:04:25.305Z,89.44
2016-07-18T06:04:56.047Z,88.77
2016-07-18T06:05:26.048Z,88.77
2016-07-18T06:05:56.073Z,88.77
2016-07-18T06:06:26.077Z,88.77
2016-07-18T06:06:54.679Z,88.77
2016-07-18T06:07:26.110Z,88.67
2016-07-18T06:07:56.141Z,88.48
2016-07-18T06:08:25.428Z,88.48
2016-07-18T06:08:56.163Z,88.19
2016-07-18T06:09:25.469Z,88.48
2016-07-18T06:09:56.184Z,88.57
2016-07-18T06:10:25.498Z,88.29
2016-07-18T06:10:56.221Z,87.95
2016-07-18T06:11:26.239Z,88.43
2016-07-18T06:11:56.249Z,87.76
2016-07-18T06:12:26.270Z,87.42
2016-07-18T06:12:55.573Z,87.46
2016-07-18T06:13:25.594Z,87.46
2016-07-18T06:13:56.319Z,87.27
2016-07-18T06:14:25.615Z,86.99
2016-07-18T06:14:55.633Z,87.46
2016-07-18T06:15:26.350Z,87.37
2016-07-18T06:15:56.380Z,86.99
2016-07-18T06:16:26.393Z,86.6
2016-07-18T06:16:55.693Z,87.18
2016-07-18T06:17:26.421Z,86.99
2016-07-18T06:17:55.730Z,86.45
2016-07-18T06:18:26.449Z,86.65
2016-07-18T06:18:55.765Z,86.55
2016-07-18T06:19:25.783Z,86.4
2016-07-18T06:19:56.491Z,85.91
2016-07-18T06:20:25.824Z,85.82
2016-07-18T06:20:55.825Z,84.86
2016-07-18T06:21:26.549Z,84.86
2016-07-18T06:21:55.854Z,84.09
2016-07-18T06:22:25.863Z,84.03
2016-07-18T06:22:55.891Z,84.12
2016-07-18T06:23:25.903Z,84.03
2016-07-18T06:23:55.211Z,84.22
2016-07-18T06:24:26.632Z,84.42
2016-07-18T06:24:56.656Z,84.32
2016-07-18T06:25:25.961Z,84.09
2016-07-18T06:25:56.685Z,84.28
2016-07-18T06:26:25.991Z,84.32
2016-07-18T06:26:56.712Z,83.94